sensor_id;sensor_type;location;lat;lon;timestamp;temperature;humidity
16102;DHT22;56411;52.964;10.540;2023-02-28T00:00:25;-3.90;99.90
16102;DHT22;56411;52.964;10.540;2023-02-28T00:02:55;-3.90;99.90
16102;DHT22;56411;52.964;10.540;2023-02-28T00:05:24;-3.90;99.90
16102;DHT22;56411;52.964;10.540;2023-02-28T00:07:51;-3.80;99.90
16102;DHT22;56411;52.964;10.540;2023-02-28T00:10:21;-3.80;99.90
16102;DHT22;56411;52.964;10.540;2023-02-28T00:12:49;-3.80;99.90
16102;DHT22;56411;52.964;10.540;2023-02-28T00:15:17;-3.90;99.90
16102;DHT22;56411;52.964;10.540;2023-02-28T00:17:44;-4.00;99.90
16102;DHT22;56411;52.964;10.540;2023-02-28T00:23:38;-4.10;99.90
16102;DHT22;56411;52.964;10.540;2023-02-28T00:26:05;-4.20;99.90
16102;DHT22;56411;52.964;10.540;2023-02-28T00:28:34;-4.30;99.90
16102;DHT22;56411;52.964;10.540;2023-02-28T00:31:01;-4.30;99.90
16102;DHT22;56411;52.964;10.540;2023-02-28T00:33:29;-4.30;99.90
16102;DHT22;56411;52.964;10.540;2023-02-28T00:36:05;-4.30;99.90
16102;DHT22;56411;52.964;10.540;2023-02-28T00:38:34;-4.30;99.90
16102;DHT22;56411;52.964;10.540;2023-02-28T00:41:01;-4.30;99.90
16102;DHT22;56411;52.964;10.540;2023-02-28T00:43:32;-4.30;99.90
16102;DHT22;56411;52.964;10.540;2023-02-28T00:45:59;-4.40;99.90
16102;DHT22;56411;52.964;10.540;2023-02-28T00:48:27;-4.40;99.90
16102;DHT22;56411;52.964;10.540;2023-02-28T00:50:54;-4.40;99.90
16102;DHT22;56411;52.964;10.540;2023-02-28T00:53:22;-4.20;99.90
16102;DHT22;56411;52.964;10.540;2023-02-28T00:55:51;-4.20;99.90
16102;DHT22;56411;52.964;10.540;2023-02-28T00:58:18;-4.30;99.90
16102;DHT22;56411;52.964;10.540;2023-02-28T01:00:46;-4.40;99.90
16102;DHT22;56411;52.964;10.540;2023-02-28T01:03:14;-4.40;99.90
16102;DHT22;56411;52.964;10.540;2023-02-28T01:05:42;-4.40;99.90
16102;DHT22;56411;52.964;10.540;2023-02-28T01:08:09;-4.50;99.90
16102;DHT22;56411;52.964;10.540;2023-02-28T01:10:36;-4.50;99.90
16102;DHT22;56411;52.964;10.540;2023-02-28T01:13:05;-4.50;99.90
16102;DHT22;56411;52.964;10.540;2023-02-28T01:15:33;-4.60;99.90
16102;DHT22;56411;52.964;10.540;2023-02-28T01:18:00;-4.80;99.90
16102;DHT22;56411;52.964;10.540;2023-02-28T01:20:27;-4.80;99.90
16102;DHT22;56411;52.964;10.540;2023-02-28T01:22:54;-4.80;99.90
16102;DHT22;56411;52.964;10.540;2023-02-28T01:25:22;-4.80;99.90
16102;DHT22;56411;52.964;10.540;2023-02-28T01:27:49;-4.70;99.90
16102;DHT22;56411;52.964;10.540;2023-02-28T01:30:19;-4.70;99.90
16102;DHT22;56411;52.964;10.540;2023-02-28T01:32:48;-4.70;99.90
16102;DHT22;56411;52.964;10.540;2023-02-28T01:35:17;-4.80;99.90
16102;DHT22;56411;52.964;10.540;2023-02-28T01:37:45;-4.90;99.90
16102;DHT22;56411;52.964;10.540;2023-02-28T01:40:14;-4.90;99.90
16102;DHT22;56411;52.964;10.540;2023-02-28T01:42:42;-5.00;99.90
16102;DHT22;56411;52.964;10.540;2023-02-28T01:45:23;-5.00;99.90
16102;DHT22;56411;52.964;10.540;2023-02-28T01:47:57;-5.10;99.90
16102;DHT22;56411;52.964;10.540;2023-02-28T01:50:29;-5.10;99.90
16102;DHT22;56411;52.964;10.540;2023-02-28T01:52:59;-5.10;99.90
16102;DHT22;56411;52.964;10.540;2023-02-28T01:55:28;-5.10;99.90
16102;DHT22;56411;52.964;10.540;2023-02-28T01:57:58;-5.00;99.90
16102;DHT22;56411;52.964;10.540;2023-02-28T02:00:28;-4.80;99.90
16102;DHT22;56411;52.964;10.540;2023-02-28T02:02:58;-4.80;99.90
16102;DHT22;56411;52.964;10.540;2023-02-28T02:05:27;-4.70;99.90
16102;DHT22;56411;52.964;10.540;2023-02-28T02:07:58;-4.70;99.90
16102;DHT22;56411;52.964;10.540;2023-02-28T02:10:32;-4.80;99.90
16102;DHT22;56411;52.964;10.540;2023-02-28T02:13:12;-4.90;99.90
16102;DHT22;56411;52.964;10.540;2023-02-28T02:15:53;-5.00;99.90
16102;DHT22;56411;52.964;10.540;2023-02-28T02:18:30;-5.00;99.90
16102;DHT22;56411;52.964;10.540;2023-02-28T02:21:19;-5.00;99.90
16102;DHT22;56411;52.964;10.540;2023-02-28T02:27:15;-4.90;99.90
16102;DHT22;56411;52.964;10.540;2023-02-28T02:30:07;-5.10;99.90
16102;DHT22;56411;52.964;10.540;2023-02-28T02:33:11;-5.10;99.90
16102;DHT22;56411;52.964;10.540;2023-02-28T02:35:48;-5.00;99.90
16102;DHT22;56411;52.964;10.540;2023-02-28T02:38:29;-5.00;99.90
16102;DHT22;56411;52.964;10.540;2023-02-28T02:41:06;-4.90;99.90
16102;DHT22;56411;52.964;10.540;2023-02-28T02:43:38;-5.10;99.90
16102;DHT22;56411;52.964;10.540;2023-02-28T02:46:12;-5.20;99.90
16102;DHT22;56411;52.964;10.540;2023-02-28T02:48:42;-5.20;99.90
16102;DHT22;56411;52.964;10.540;2023-02-28T02:51:14;-5.30;99.90
16102;DHT22;56411;52.964;10.540;2023-02-28T02:53:46;-5.40;99.90
16102;DHT22;56411;52.964;10.540;2023-02-28T02:56:17;-5.40;99.90
16102;DHT22;56411;52.964;10.540;2023-02-28T02:58:47;-5.40;99.90
16102;DHT22;56411;52.964;10.540;2023-02-28T03:01:20;-5.40;99.90
16102;DHT22;56411;52.964;10.540;2023-02-28T03:03:54;-5.50;99.90
16102;DHT22;56411;52.964;10.540;2023-02-28T03:06:24;-5.50;99.90
16102;DHT22;56411;52.964;10.540;2023-02-28T03:08:51;-5.50;99.90
16102;DHT22;56411;52.964;10.540;2023-02-28T03:11:19;-5.50;99.90
16102;DHT22;56411;52.964;10.540;2023-02-28T03:14:17;-5.60;99.90
16102;DHT22;56411;52.964;10.540;2023-02-28T03:17:00;-5.60;99.90
16102;DHT22;56411;52.964;10.540;2023-02-28T03:19:37;-5.70;99.90
16102;DHT22;56411;52.964;10.540;2023-02-28T03:22:32;-5.70;99.90
16102;DHT22;56411;52.964;10.540;2023-02-28T03:25:07;-5.80;99.90
16102;DHT22;56411;52.964;10.540;2023-02-28T03:27:40;-5.70;99.90
16102;DHT22;56411;52.964;10.540;2023-02-28T03:30:11;-5.60;99.90
16102;DHT22;56411;52.964;10.540;2023-02-28T03:32:50;-5.60;99.90
16102;DHT22;56411;52.964;10.540;2023-02-28T03:35:21;-5.50;99.90
16102;DHT22;56411;52.964;10.540;2023-02-28T03:37:54;-5.50;99.90
16102;DHT22;56411;52.964;10.540;2023-02-28T03:40:24;-5.40;99.90
16102;DHT22;56411;52.964;10.540;2023-02-28T03:42:57;-5.60;99.90
16102;DHT22;56411;52.964;10.540;2023-02-28T03:45:27;-5.50;99.90
16102;DHT22;56411;52.964;10.540;2023-02-28T03:48:01;-5.50;99.90
16102;DHT22;56411;52.964;10.540;2023-02-28T03:50:35;-5.50;99.90
16102;DHT22;56411;52.964;10.540;2023-02-28T03:53:10;-5.50;99.90
16102;DHT22;56411;52.964;10.540;2023-02-28T03:55:42;-5.60;99.90
16102;DHT22;56411;52.964;10.540;2023-02-28T03:58:18;-5.70;99.90
16102;DHT22;56411;52.964;10.540;2023-02-28T04:00:48;-5.80;99.90
16102;DHT22;56411;52.964;10.540;2023-02-28T04:03:17;-5.80;99.90
16102;DHT22;56411;52.964;10.540;2023-02-28T04:05:48;-5.90;99.90
16102;DHT22;56411;52.964;10.540;2023-02-28T04:08:19;-5.90;99.90
16102;DHT22;56411;52.964;10.540;2023-02-28T04:10:51;-5.80;99.90
16102;DHT22;56411;52.964;10.540;2023-02-28T04:13:20;-5.80;99.90
16102;DHT22;56411;52.964;10.540;2023-02-28T04:15:48;-5.80;99.90
16102;DHT22;56411;52.964;10.540;2023-02-28T04:18:15;-5.80;99.90
16102;DHT22;56411;52.964;10.540;2023-02-28T04:20:42;-5.80;99.90
16102;DHT22;56411;52.964;10.540;2023-02-28T04:23:09;-5.80;99.90
16102;DHT22;56411;52.964;10.540;2023-02-28T04:25:38;-5.80;99.90
16102;DHT22;56411;52.964;10.540;2023-02-28T04:28:06;-5.80;99.90
16102;DHT22;56411;52.964;10.540;2023-02-28T04:30:34;-5.80;99.90
16102;DHT22;56411;52.964;10.540;2023-02-28T04:33:01;-5.80;99.90
16102;DHT22;56411;52.964;10.540;2023-02-28T04:35:29;-5.90;99.90
16102;DHT22;56411;52.964;10.540;2023-02-28T04:37:56;-5.90;99.90
16102;DHT22;56411;52.964;10.540;2023-02-28T04:40:23;-5.90;99.90
16102;DHT22;56411;52.964;10.540;2023-02-28T04:42:52;-5.90;99.90
16102;DHT22;56411;52.964;10.540;2023-02-28T04:45:19;-5.90;99.90
16102;DHT22;56411;52.964;10.540;2023-02-28T04:47:47;-5.80;99.90
16102;DHT22;56411;52.964;10.540;2023-02-28T04:50:14;-5.90;99.90
16102;DHT22;56411;52.964;10.540;2023-02-28T04:52:49;-5.90;99.90
16102;DHT22;56411;52.964;10.540;2023-02-28T04:55:16;-5.90;99.90
16102;DHT22;56411;52.964;10.540;2023-02-28T04:57:43;-5.90;99.90
16102;DHT22;56411;52.964;10.540;2023-02-28T05:00:13;-5.80;99.90
16102;DHT22;56411;52.964;10.540;2023-02-28T05:02:42;-5.80;99.90
16102;DHT22;56411;52.964;10.540;2023-02-28T05:05:09;-5.90;99.90
16102;DHT22;56411;52.964;10.540;2023-02-28T05:07:37;-5.90;99.90
16102;DHT22;56411;52.964;10.540;2023-02-28T05:10:05;-6.00;99.90
16102;DHT22;56411;52.964;10.540;2023-02-28T05:12:32;-5.70;99.90
16102;DHT22;56411;52.964;10.540;2023-02-28T05:14:59;-5.50;99.90
16102;DHT22;56411;52.964;10.540;2023-02-28T05:17:29;-5.60;99.90
16102;DHT22;56411;52.964;10.540;2023-02-28T05:19:56;-5.70;99.90
16102;DHT22;56411;52.964;10.540;2023-02-28T05:22:23;-5.80;99.90
16102;DHT22;56411;52.964;10.540;2023-02-28T05:24:50;-5.90;99.90
16102;DHT22;56411;52.964;10.540;2023-02-28T05:27:17;-5.90;99.90
16102;DHT22;56411;52.964;10.540;2023-02-28T05:29:44;-6.00;99.90
16102;DHT22;56411;52.964;10.540;2023-02-28T05:32:12;-6.00;99.90
16102;DHT22;56411;52.964;10.540;2023-02-28T05:34:41;-6.00;99.90
16102;DHT22;56411;52.964;10.540;2023-02-28T05:37:12;-6.00;99.90
16102;DHT22;56411;52.964;10.540;2023-02-28T05:39:39;-6.00;99.90
16102;DHT22;56411;52.964;10.540;2023-02-28T05:42:07;-6.10;99.90
16102;DHT22;56411;52.964;10.540;2023-02-28T05:44:35;-6.20;99.90
16102;DHT22;56411;52.964;10.540;2023-02-28T05:47:02;-6.20;99.90
16102;DHT22;56411;52.964;10.540;2023-02-28T05:49:31;-6.10;99.90
16102;DHT22;56411;52.964;10.540;2023-02-28T05:52:00;-6.20;99.90
16102;DHT22;56411;52.964;10.540;2023-02-28T05:54:27;-6.20;99.90
16102;DHT22;56411;52.964;10.540;2023-02-28T05:56:54;-6.30;99.90
16102;DHT22;56411;52.964;10.540;2023-02-28T05:59:22;-6.20;99.90
16102;DHT22;56411;52.964;10.540;2023-02-28T06:01:49;-6.10;99.90
16102;DHT22;56411;52.964;10.540;2023-02-28T06:04:20;-6.00;99.90
16102;DHT22;56411;52.964;10.540;2023-02-28T06:06:50;-5.90;99.90
16102;DHT22;56411;52.964;10.540;2023-02-28T06:09:19;-5.80;99.90
16102;DHT22;56411;52.964;10.540;2023-02-28T06:11:46;-5.70;99.90
16102;DHT22;56411;52.964;10.540;2023-02-28T06:14:15;-5.90;99.90
16102;DHT22;56411;52.964;10.540;2023-02-28T06:16:42;-6.00;99.90
16102;DHT22;56411;52.964;10.540;2023-02-28T06:19:10;-6.10;99.90
16102;DHT22;56411;52.964;10.540;2023-02-28T06:21:38;-6.20;99.90
16102;DHT22;56411;52.964;10.540;2023-02-28T06:24:06;-6.20;99.90
16102;DHT22;56411;52.964;10.540;2023-02-28T06:26:35;-6.30;99.90
16102;DHT22;56411;52.964;10.540;2023-02-28T06:29:02;-6.30;99.90
16102;DHT22;56411;52.964;10.540;2023-02-28T06:31:29;-6.30;99.90
16102;DHT22;56411;52.964;10.540;2023-02-28T06:33:57;-6.30;99.90
16102;DHT22;56411;52.964;10.540;2023-02-28T06:36:24;-6.10;99.90
16102;DHT22;56411;52.964;10.540;2023-02-28T06:38:51;-6.10;99.90
16102;DHT22;56411;52.964;10.540;2023-02-28T06:41:22;-6.10;99.90
16102;DHT22;56411;52.964;10.540;2023-02-28T06:43:51;-6.10;99.90
16102;DHT22;56411;52.964;10.540;2023-02-28T06:46:18;-6.10;99.90
16102;DHT22;56411;52.964;10.540;2023-02-28T06:48:46;-6.10;99.90
16102;DHT22;56411;52.964;10.540;2023-02-28T06:51:15;-6.10;99.90
16102;DHT22;56411;52.964;10.540;2023-02-28T06:53:43;-6.00;99.90
16102;DHT22;56411;52.964;10.540;2023-02-28T06:56:13;-6.00;99.90
16102;DHT22;56411;52.964;10.540;2023-02-28T06:58:41;-5.90;99.90
16102;DHT22;56411;52.964;10.540;2023-02-28T07:01:10;-5.80;99.90
16102;DHT22;56411;52.964;10.540;2023-02-28T07:03:37;-5.60;99.90
16102;DHT22;56411;52.964;10.540;2023-02-28T07:06:05;-5.50;99.90
16102;DHT22;56411;52.964;10.540;2023-02-28T07:08:32;-5.50;99.90
16102;DHT22;56411;52.964;10.540;2023-02-28T07:10:59;-5.40;99.90
16102;DHT22;56411;52.964;10.540;2023-02-28T07:13:26;-5.40;99.90
16102;DHT22;56411;52.964;10.540;2023-02-28T07:15:54;-5.40;99.90
16102;DHT22;56411;52.964;10.540;2023-02-28T07:18:24;-5.30;99.90
16102;DHT22;56411;52.964;10.540;2023-02-28T07:20:51;-5.20;99.90
16102;DHT22;56411;52.964;10.540;2023-02-28T07:23:19;-5.10;99.90
16102;DHT22;56411;52.964;10.540;2023-02-28T07:25:46;-5.10;99.90
16102;DHT22;56411;52.964;10.540;2023-02-28T07:28:13;-5.00;99.90
16102;DHT22;56411;52.964;10.540;2023-02-28T07:30:41;-4.90;99.90
16102;DHT22;56411;52.964;10.540;2023-02-28T07:33:09;-4.80;99.90
16102;DHT22;56411;52.964;10.540;2023-02-28T07:35:38;-4.70;99.90
16102;DHT22;56411;52.964;10.540;2023-02-28T07:38:06;-4.70;99.90
16102;DHT22;56411;52.964;10.540;2023-02-28T07:40:34;-4.60;99.90
16102;DHT22;56411;52.964;10.540;2023-02-28T07:43:02;-4.50;99.90
16102;DHT22;56411;52.964;10.540;2023-02-28T07:45:32;-4.40;99.90
16102;DHT22;56411;52.964;10.540;2023-02-28T07:48:00;-4.30;99.90
16102;DHT22;56411;52.964;10.540;2023-02-28T07:50:27;-4.20;99.90
16102;DHT22;56411;52.964;10.540;2023-02-28T07:52:58;-4.00;99.90
16102;DHT22;56411;52.964;10.540;2023-02-28T07:55:25;-3.80;99.90
16102;DHT22;56411;52.964;10.540;2023-02-28T07:57:52;-3.80;99.90
16102;DHT22;56411;52.964;10.540;2023-02-28T08:00:19;-3.70;99.90
16102;DHT22;56411;52.964;10.540;2023-02-28T08:02:47;-3.50;99.90
16102;DHT22;56411;52.964;10.540;2023-02-28T08:05:14;-3.40;99.90
16102;DHT22;56411;52.964;10.540;2023-02-28T08:07:41;-3.30;99.90
16102;DHT22;56411;52.964;10.540;2023-02-28T08:10:11;-3.20;99.90
16102;DHT22;56411;52.964;10.540;2023-02-28T08:12:38;-3.20;99.90
16102;DHT22;56411;52.964;10.540;2023-02-28T08:15:07;-3.00;99.90
16102;DHT22;56411;52.964;10.540;2023-02-28T08:17:34;-3.00;99.90
16102;DHT22;56411;52.964;10.540;2023-02-28T08:20:02;-2.90;99.90
16102;DHT22;56411;52.964;10.540;2023-02-28T08:22:29;-2.80;99.90
16102;DHT22;56411;52.964;10.540;2023-02-28T08:24:56;-2.70;99.90
16102;DHT22;56411;52.964;10.540;2023-02-28T08:27:25;-2.60;99.90
16102;DHT22;56411;52.964;10.540;2023-02-28T08:29:52;-2.40;99.90
16102;DHT22;56411;52.964;10.540;2023-02-28T08:32:19;-2.30;99.90
16102;DHT22;56411;52.964;10.540;2023-02-28T08:34:47;-2.20;99.90
16102;DHT22;56411;52.964;10.540;2023-02-28T08:37:14;-2.10;99.90
16102;DHT22;56411;52.964;10.540;2023-02-28T08:39:42;-2.00;99.90
16102;DHT22;56411;52.964;10.540;2023-02-28T08:42:09;-1.90;99.90
16102;DHT22;56411;52.964;10.540;2023-02-28T08:44:38;-1.80;99.90
16102;DHT22;56411;52.964;10.540;2023-02-28T08:47:06;-1.70;99.90
16102;DHT22;56411;52.964;10.540;2023-02-28T08:49:33;-1.50;99.90
16102;DHT22;56411;52.964;10.540;2023-02-28T08:52:00;-1.30;99.90
16102;DHT22;56411;52.964;10.540;2023-02-28T08:54:27;-1.20;99.90
16102;DHT22;56411;52.964;10.540;2023-02-28T08:56:57;-1.10;99.90
16102;DHT22;56411;52.964;10.540;2023-02-28T08:59:24;-1.00;99.90
16102;DHT22;56411;52.964;10.540;2023-02-28T09:01:53;-0.90;99.90
16102;DHT22;56411;52.964;10.540;2023-02-28T09:04:20;-0.70;99.90
16102;DHT22;56411;52.964;10.540;2023-02-28T09:06:48;-0.50;99.90
16102;DHT22;56411;52.964;10.540;2023-02-28T09:09:15;-0.40;99.90
16102;DHT22;56411;52.964;10.540;2023-02-28T09:11:42;-0.30;99.90
16102;DHT22;56411;52.964;10.540;2023-02-28T09:14:09;-0.20;99.90
16102;DHT22;56411;52.964;10.540;2023-02-28T09:16:37;-0.10;99.90
16102;DHT22;56411;52.964;10.540;2023-02-28T09:19:06;0.00;99.90
16102;DHT22;56411;52.964;10.540;2023-02-28T09:21:33;0.20;99.90
16102;DHT22;56411;52.964;10.540;2023-02-28T09:24:00;0.30;99.90
16102;DHT22;56411;52.964;10.540;2023-02-28T09:26:27;0.40;99.90
16102;DHT22;56411;52.964;10.540;2023-02-28T09:28:55;0.40;99.90
16102;DHT22;56411;52.964;10.540;2023-02-28T09:31:26;0.60;99.90
16102;DHT22;56411;52.964;10.540;2023-02-28T09:33:55;0.60;99.90
16102;DHT22;56411;52.964;10.540;2023-02-28T09:36:26;0.80;99.90
16102;DHT22;56411;52.964;10.540;2023-02-28T09:38:53;0.80;99.90
16102;DHT22;56411;52.964;10.540;2023-02-28T09:41:23;0.90;99.90
16102;DHT22;56411;52.964;10.540;2023-02-28T09:43:56;1.00;99.90
16102;DHT22;56411;52.964;10.540;2023-02-28T09:46:31;1.10;99.90
16102;DHT22;56411;52.964;10.540;2023-02-28T09:49:01;1.30;99.90
16102;DHT22;56411;52.964;10.540;2023-02-28T09:51:42;1.40;99.90
16102;DHT22;56411;52.964;10.540;2023-02-28T09:54:14;1.60;99.90
16102;DHT22;56411;52.964;10.540;2023-02-28T09:56:45;1.80;99.90
16102;DHT22;56411;52.964;10.540;2023-02-28T09:59:26;1.90;99.90
16102;DHT22;56411;52.964;10.540;2023-02-28T10:02:00;2.10;99.90
16102;DHT22;56411;52.964;10.540;2023-02-28T10:04:40;2.30;99.90
16102;DHT22;56411;52.964;10.540;2023-02-28T10:07:18;2.50;99.90
16102;DHT22;56411;52.964;10.540;2023-02-28T10:09:51;2.70;99.90
16102;DHT22;56411;52.964;10.540;2023-02-28T10:12:20;3.00;99.90
16102;DHT22;56411;52.964;10.540;2023-02-28T10:14:50;3.00;99.90
16102;DHT22;56411;52.964;10.540;2023-02-28T10:17:21;3.20;99.90
16102;DHT22;56411;52.964;10.540;2023-02-28T10:19:56;3.30;99.90
16102;DHT22;56411;52.964;10.540;2023-02-28T10:22:29;3.40;99.90
16102;DHT22;56411;52.964;10.540;2023-02-28T10:24:59;3.40;99.90
16102;DHT22;56411;52.964;10.540;2023-02-28T10:27:30;3.60;99.90
16102;DHT22;56411;52.964;10.540;2023-02-28T10:29:59;3.50;99.90
16102;DHT22;56411;52.964;10.540;2023-02-28T10:32:30;3.70;99.90
16102;DHT22;56411;52.964;10.540;2023-02-28T10:35:00;3.90;99.90
16102;DHT22;56411;52.964;10.540;2023-02-28T10:37:29;4.40;99.90
16102;DHT22;56411;52.964;10.540;2023-02-28T10:39:57;4.70;99.90
16102;DHT22;56411;52.964;10.540;2023-02-28T10:42:26;4.90;99.90
16102;DHT22;56411;52.964;10.540;2023-02-28T10:45:10;5.20;99.90
16102;DHT22;56411;52.964;10.540;2023-02-28T10:47:49;5.80;99.90
16102;DHT22;56411;52.964;10.540;2023-02-28T10:50:33;6.10;99.90
16102;DHT22;56411;52.964;10.540;2023-02-28T10:53:33;6.50;99.90
16102;DHT22;56411;52.964;10.540;2023-02-28T10:56:03;6.90;99.90
16102;DHT22;56411;52.964;10.540;2023-02-28T10:58:40;7.20;99.90
16102;DHT22;56411;52.964;10.540;2023-02-28T11:01:14;7.30;99.90
16102;DHT22;56411;52.964;10.540;2023-02-28T11:03:41;7.60;99.90
16102;DHT22;56411;52.964;10.540;2023-02-28T11:06:16;8.00;99.90
16102;DHT22;56411;52.964;10.540;2023-02-28T11:08:50;8.10;99.90
16102;DHT22;56411;52.964;10.540;2023-02-28T11:11:20;8.30;99.90
16102;DHT22;56411;52.964;10.540;2023-02-28T11:13:51;8.70;99.90
16102;DHT22;56411;52.964;10.540;2023-02-28T11:16:19;9.40;99.90
16102;DHT22;56411;52.964;10.540;2023-02-28T11:18:49;9.70;99.90
16102;DHT22;56411;52.964;10.540;2023-02-28T11:21:20;10.00;99.90
16102;DHT22;56411;52.964;10.540;2023-02-28T11:23:53;10.40;99.90
16102;DHT22;56411;52.964;10.540;2023-02-28T11:26:40;11.10;99.90
16102;DHT22;56411;52.964;10.540;2023-02-28T11:29:17;11.80;99.90
16102;DHT22;56411;52.964;10.540;2023-02-28T11:32:01;12.20;99.90
16102;DHT22;56411;52.964;10.540;2023-02-28T11:34:29;12.60;99.90
16102;DHT22;56411;52.964;10.540;2023-02-28T11:36:58;13.20;99.90
16102;DHT22;56411;52.964;10.540;2023-02-28T11:39:27;13.30;99.90
16102;DHT22;56411;52.964;10.540;2023-02-28T11:42:29;13.70;99.90
16102;DHT22;56411;52.964;10.540;2023-02-28T11:45:07;13.60;99.90
16102;DHT22;56411;52.964;10.540;2023-02-28T11:47:43;13.90;99.90
16102;DHT22;56411;52.964;10.540;2023-02-28T11:50:18;14.00;99.90
16102;DHT22;56411;52.964;10.540;2023-02-28T11:52:50;14.50;99.90
16102;DHT22;56411;52.964;10.540;2023-02-28T11:55:25;14.90;99.70
16102;DHT22;56411;52.964;10.540;2023-02-28T12:01:06;15.20;98.00
16102;DHT22;56411;52.964;10.540;2023-02-28T12:03:43;15.50;98.60
16102;DHT22;56411;52.964;10.540;2023-02-28T12:06:18;15.60;96.80
16102;DHT22;56411;52.964;10.540;2023-02-28T12:09:03;15.70;96.50
16102;DHT22;56411;52.964;10.540;2023-02-28T12:11:50;15.50;95.30
16102;DHT22;56411;52.964;10.540;2023-02-28T12:14:36;15.40;95.30
16102;DHT22;56411;52.964;10.540;2023-02-28T12:17:19;15.10;94.10
16102;DHT22;56411;52.964;10.540;2023-02-28T12:19:54;14.30;96.10
16102;DHT22;56411;52.964;10.540;2023-02-28T12:22:29;14.10;96.30
16102;DHT22;56411;52.964;10.540;2023-02-28T12:25:39;13.90;97.10
16102;DHT22;56411;52.964;10.540;2023-02-28T12:28:13;13.60;97.20
16102;DHT22;56411;52.964;10.540;2023-02-28T12:30:49;14.00;96.30
16102;DHT22;56411;52.964;10.540;2023-02-28T12:33:21;13.80;96.30
16102;DHT22;56411;52.964;10.540;2023-02-28T12:35:52;13.90;95.10
16102;DHT22;56411;52.964;10.540;2023-02-28T12:38:24;13.70;96.90
16102;DHT22;56411;52.964;10.540;2023-02-28T12:40:55;13.70;96.30
16102;DHT22;56411;52.964;10.540;2023-02-28T12:43:28;14.10;96.60
16102;DHT22;56411;52.964;10.540;2023-02-28T12:45:59;14.60;95.40
16102;DHT22;56411;52.964;10.540;2023-02-28T12:48:31;14.70;96.20
16102;DHT22;56411;52.964;10.540;2023-02-28T12:51:04;15.30;94.20
16102;DHT22;56411;52.964;10.540;2023-02-28T12:53:43;15.00;95.70
16102;DHT22;56411;52.964;10.540;2023-02-28T12:56:17;15.80;94.80
16102;DHT22;56411;52.964;10.540;2023-02-28T12:58:51;15.60;93.30
16102;DHT22;56411;52.964;10.540;2023-02-28T13:01:48;15.80;93.10
16102;DHT22;56411;52.964;10.540;2023-02-28T13:07:34;15.70;92.40
16102;DHT22;56411;52.964;10.540;2023-02-28T13:10:05;15.80;91.70
16102;DHT22;56411;52.964;10.540;2023-02-28T13:12:33;14.80;93.80
16102;DHT22;56411;52.964;10.540;2023-02-28T13:15:06;14.70;93.40
16102;DHT22;56411;52.964;10.540;2023-02-28T13:17:39;14.10;95.10
16102;DHT22;56411;52.964;10.540;2023-02-28T13:20:16;14.10;95.10
16102;DHT22;56411;52.964;10.540;2023-02-28T13:22:45;14.70;94.40
16102;DHT22;56411;52.964;10.540;2023-02-28T13:31:20;15.20;92.40
16102;DHT22;56411;52.964;10.540;2023-02-28T13:34:11;14.60;92.60
16102;DHT22;56411;52.964;10.540;2023-02-28T13:36:39;15.10;92.90
16102;DHT22;56411;52.964;10.540;2023-02-28T13:42:34;15.70;91.60
16102;DHT22;56411;52.964;10.540;2023-02-28T13:45:24;16.10;90.20
16102;DHT22;56411;52.964;10.540;2023-02-28T13:47:55;16.30;90.90
16102;DHT22;56411;52.964;10.540;2023-02-28T13:50:32;15.80;91.20
16102;DHT22;56411;52.964;10.540;2023-02-28T13:56:18;16.50;90.10
16102;DHT22;56411;52.964;10.540;2023-02-28T13:58:54;15.40;90.20
16102;DHT22;56411;52.964;10.540;2023-02-28T14:01:34;14.90;91.50
16102;DHT22;56411;52.964;10.540;2023-02-28T14:04:41;15.70;91.30
16102;DHT22;56411;52.964;10.540;2023-02-28T14:07:18;16.60;90.50
16102;DHT22;56411;52.964;10.540;2023-02-28T14:09:51;16.10;90.30
16102;DHT22;56411;52.964;10.540;2023-02-28T14:12:58;16.40;90.60
16102;DHT22;56411;52.964;10.540;2023-02-28T14:15:54;16.40;89.10
16102;DHT22;56411;52.964;10.540;2023-02-28T14:18:28;17.00;87.70
16102;DHT22;56411;52.964;10.540;2023-02-28T14:26:58;15.60;90.10
16102;DHT22;56411;52.964;10.540;2023-02-28T14:29:46;16.10;90.50
16102;DHT22;56411;52.964;10.540;2023-02-28T14:32:25;16.70;90.40
16102;DHT22;56411;52.964;10.540;2023-02-28T14:35:01;17.20;87.50
16102;DHT22;56411;52.964;10.540;2023-02-28T14:37:34;16.40;88.00
16102;DHT22;56411;52.964;10.540;2023-02-28T14:40:12;16.20;89.50
16102;DHT22;56411;52.964;10.540;2023-02-28T14:42:46;16.10;89.20
16102;DHT22;56411;52.964;10.540;2023-02-28T14:45:19;16.40;89.00
16102;DHT22;56411;52.964;10.540;2023-02-28T14:47:47;16.50;89.80
16102;DHT22;56411;52.964;10.540;2023-02-28T14:50:20;16.80;88.40
16102;DHT22;56411;52.964;10.540;2023-02-28T14:52:52;16.50;87.50
16102;DHT22;56411;52.964;10.540;2023-02-28T14:55:28;15.90;88.10
16102;DHT22;56411;52.964;10.540;2023-02-28T14:57:57;15.20;90.60
16102;DHT22;56411;52.964;10.540;2023-02-28T15:00:26;15.20;90.60
16102;DHT22;56411;52.964;10.540;2023-02-28T15:02:54;15.10;89.30
16102;DHT22;56411;52.964;10.540;2023-02-28T15:05:30;14.70;90.40
16102;DHT22;56411;52.964;10.540;2023-02-28T15:08:09;14.70;90.60
16102;DHT22;56411;52.964;10.540;2023-02-28T15:10:37;14.80;88.70
16102;DHT22;56411;52.964;10.540;2023-02-28T15:13:07;14.50;91.30
16102;DHT22;56411;52.964;10.540;2023-02-28T15:15:42;14.10;91.90
16102;DHT22;56411;52.964;10.540;2023-02-28T15:18:15;14.30;92.90
16102;DHT22;56411;52.964;10.540;2023-02-28T15:20:49;14.50;93.00
16102;DHT22;56411;52.964;10.540;2023-02-28T15:23:19;14.20;91.90
16102;DHT22;56411;52.964;10.540;2023-02-28T15:25:47;14.00;91.70
16102;DHT22;56411;52.964;10.540;2023-02-28T15:28:19;13.80;91.10
16102;DHT22;56411;52.964;10.540;2023-02-28T15:30:58;14.40;91.40
16102;DHT22;56411;52.964;10.540;2023-02-28T15:33:26;13.80;92.30
16102;DHT22;56411;52.964;10.540;2023-02-28T15:36:05;14.00;93.00
16102;DHT22;56411;52.964;10.540;2023-02-28T15:38:36;14.20;91.90
16102;DHT22;56411;52.964;10.540;2023-02-28T15:41:03;14.40;92.90
16102;DHT22;56411;52.964;10.540;2023-02-28T15:43:35;14.30;92.70
16102;DHT22;56411;52.964;10.540;2023-02-28T15:46:04;14.50;92.50
16102;DHT22;56411;52.964;10.540;2023-02-28T15:48:35;14.30;92.90
16102;DHT22;56411;52.964;10.540;2023-02-28T15:51:07;14.30;92.80
16102;DHT22;56411;52.964;10.540;2023-02-28T15:53:40;14.30;92.20
16102;DHT22;56411;52.964;10.540;2023-02-28T15:56:20;14.10;92.20
16102;DHT22;56411;52.964;10.540;2023-02-28T15:58:49;13.40;93.10
16102;DHT22;56411;52.964;10.540;2023-02-28T16:01:21;13.10;94.10
16102;DHT22;56411;52.964;10.540;2023-02-28T16:03:53;13.00;93.90
16102;DHT22;56411;52.964;10.540;2023-02-28T16:06:35;12.10;96.00
16102;DHT22;56411;52.964;10.540;2023-02-28T16:09:06;11.80;96.40
16102;DHT22;56411;52.964;10.540;2023-02-28T16:11:38;11.40;98.50
16102;DHT22;56411;52.964;10.540;2023-02-28T16:14:08;11.40;99.50
16102;DHT22;56411;52.964;10.540;2023-02-28T16:16:42;11.00;99.50